Salishan — WUT4384 — position and weather

sailwx.info

Track history (hours):
 
Tides and Currents Weather Stations Pressure Air Temp Water Temp Dewpoint Dewpoint Depression Visibility Wind Speed Wind Dir Waves Ship Positions

Salishan

Owner: Sause Bros. Inc., COOS BAY, OR. More information available from US FCC via Universal Licensing System and Coast Guard Vessel Documentation Center.

Last reported at 2014-Nov-27 13:31 UTC. Time now 2014-Nov-27 14:29 UTC.
Position N 49°17' W 123°10'.

MMSI: 367007912.

Date/timePositionNaut miles runAvg speedWind from/ knotsBaromVisibWave heightAir tempDewpointWater temp
2014-Nov-27 13:31N 49°17' W 123°10'0 0.0
2014-Nov-27 12:31N 49°17' W 123°10'0 0.0
2014-Nov-27 11:31N 49°17' W 123°10'0 0.0
2014-Nov-27 10:31N 49°17' W 123°10'0 0.0
2014-Nov-27 09:31N 49°17' W 123°10'0 0.0
2014-Nov-27 08:31N 49°17' W 123°10'0 0.0
2014-Nov-27 07:33N 49°17' W 123°10'2 2.4
2014-Nov-27 06:33N 49°18' W 123°13'6 6.2
2014-Nov-27 05:33N 49°13' W 123°19'9 8.7
2014-Nov-27 04:33N 49°05' W 123°21'8 8.3
2014-Nov-27 03:33N 48°59' W 123°12'9 8.6
2014-Nov-27 02:33N 48°53' W 123°02'7 7.0
2014-Nov-27 01:33N 48°46' W 123°01'9 9.3
2014-Nov-27 00:34N 48°42' W 123°14'8 8.3
2014-Nov-26 23:33N 48°34' W 123°12'8 8.2
2014-Nov-26 22:33N 48°26' W 123°09'8 7.6
2014-Nov-26 21:33N 48°18' W 123°11'7 7.1
2014-Nov-26 20:31N 48°12' W 123°15'2 6.8
2014-Nov-26 20:14N 48°11' W 123°18'5 7.0
2014-Nov-26 19:33N 48°11' W 123°25'7 6.7
2014-Nov-26 18:33N 48°12' W 123°35'6 5.6
2014-Nov-26 17:33N 48°13' W 123°43'6 5.5
2014-Nov-26 16:33N 48°12' W 123°52'5 5.4
2014-Nov-26 15:33N 48°14' W 123°60'7 7.1
2014-Nov-26 14:33N 48°17' W 124°09'8 7.6
2014-Nov-26 13:33N 48°20' W 124°20'8 8.3
2014-Nov-26 12:33N 48°24' W 124°31'9 9.1
2014-Nov-26 11:33N 48°27' W 124°43'9 9.3
2014-Nov-26 10:33N 48°25' W 124°57'10 9.9
2014-Nov-26 09:32N 48°16' W 125°03'10 9.7
2014-Nov-26 08:29N 48°06' W 125°09'60 8.5
2014-Nov-26 01:28N 47°08' W 124°51'8 8.4
2014-Nov-26 00:31N 47°00' W 124°47'8 8.5
2014-Nov-25 23:33N 46°52' W 124°43'8 8.0
2014-Nov-25 22:33N 46°45' W 124°41'8 7.9
2014-Nov-25 21:33N 46°37' W 124°37'8 8.1
2014-Nov-25 20:33N 46°29' W 124°34'8 8.4
2014-Nov-25 19:33N 46°21' W 124°31'9 8.6
2014-Nov-25 18:33N 46°13' W 124°27'9 8.9
2014-Nov-25 17:33N 46°04' W 124°27'9 9.3
2014-Nov-25 16:33N 45°55' W 124°27'9 8.7
2014-Nov-25 15:33N 45°46' W 124°28'9 8.6
2014-Nov-25 14:33N 45°38' W 124°29'9 8.8
2014-Nov-25 13:33N 45°29' W 124°30'9 8.6
2014-Nov-25 12:33N 45°20' W 124°30'  
2014-Nov-23 08:08N 38°37' W 123°55'6 6.2
2014-Nov-23 07:12N 38°33' W 123°50'4 5.9
2014-Nov-23 06:29N 38°30' W 123°46'5 5.8
2014-Nov-23 05:33N 38°27' W 123°41'6 5.6
2014-Nov-23 04:33N 38°23' W 123°36'5 5.3
2014-Nov-23 03:33N 38°19' W 123°31'5 5.0
2014-Nov-23 02:33N 38°15' W 123°27'6 5.8
2014-Nov-23 01:33N 38°11' W 123°22'6 6.0
2014-Nov-23 00:33N 38°07' W 123°17'6 6.3
2014-Nov-22 23:33N 38°02' W 123°12'7 6.6
2014-Nov-22 22:33N 37°57' W 123°05'7 6.9
2014-Nov-22 21:33N 37°54' W 122°58'7 7.2
2014-Nov-22 20:33N 37°50' W 122°50'6 6.2
2014-Nov-22 19:33N 37°47' W 122°43'7 6.8
2014-Nov-22 18:33N 37°47' W 122°34'7 6.7
2014-Nov-22 17:33N 37°50' W 122°27'6 6.0
2014-Nov-22 16:33N 37°56' W 122°27'7 6.8
2014-Nov-22 15:33N 38°02' W 122°22'8 8.3
2014-Nov-22 14:33N 38°03' W 122°12'3 1.0
2014-Nov-22 11:27N 38°02' W 122°08'0 0.0
2014-Nov-22 10:33N 38°02' W 122°08'0 0.0
2014-Nov-22 09:27N 38°02' W 122°08'0 0.0
2014-Nov-22 08:04N 38°02' W 122°08'0 0.0
2014-Nov-22 07:22N 38°02' W 122°08'0 0.0
2014-Nov-22 06:04N 38°02' W 122°08'0 0.0
2014-Nov-22 05:28N 38°02' W 122°08'0 0.0
2014-Nov-22 04:28N 38°02' W 122°08'0 0.0
2014-Nov-22 03:28N 38°02' W 122°08'0 0.0
2014-Nov-22 02:10N 38°02' W 122°08'0 0.0
2014-Nov-22 01:28N 38°02' W 122°08'0 0.0
2014-Nov-22 00:28N 38°02' W 122°08'0 0.0
2014-Nov-21 23:28N 38°02' W 122°08'0 0.0
2014-Nov-21 22:04N 38°02' W 122°08'0 0.0
2014-Nov-21 21:28N 38°02' W 122°08'0 0.0
2014-Nov-21 20:10N 38°02' W 122°08'0 0.0
2014-Nov-21 19:28N 38°02' W 122°08'0 0.0
2014-Nov-21 18:29N 38°02' W 122°08'2 0.7
2014-Nov-21 15:23N 38°03' W 122°11'4 5.0
2014-Nov-21 14:33N 38°04' W 122°16'6 5.6
2014-Nov-21 13:33N 38°02' W 122°23'6 5.6
2014-Nov-21 12:34N 37°57' W 122°27'3 3.2
2014-Nov-21 11:34N 37°54' W 122°26'0 0.2
2014-Nov-21 10:33N 37°54' W 122°26'0 0.0
2014-Nov-21 09:33N 37°54' W 122°26'0 0.0
2014-Nov-21 08:33N 37°54' W 122°26'0 0.0
2014-Nov-21 07:30N 37°54' W 122°26'0 0.0
2014-Nov-21 06:33N 37°54' W 122°26'0 0.0
2014-Nov-21 05:33N 37°54' W 122°26'0 0.0
2014-Nov-21 04:26N 37°54' W 122°26'0 0.0
2014-Nov-21 03:29N 37°54' W 122°26'0 0.0
2014-Nov-21 02:32N 37°54' W 122°26'0 0.1
2014-Nov-21 01:32N 37°54' W 122°26'0 0.0
2014-Nov-21 00:32N 37°54' W 122°26'0 0.0
2014-Nov-20 23:32N 37°54' W 122°26'0 0.0
2014-Nov-20 22:32N 37°54' W 122°26'0 0.0
2014-Nov-20 21:32N 37°54' W 122°26'0 0.1
2014-Nov-20 20:32N 37°54' W 122°26'0 0.0
2014-Nov-20 19:29N 37°54' W 122°26'0 0.0
2014-Nov-20 18:32N 37°54' W 122°26'0 0.0
2014-Nov-20 17:20N 37°54' W 122°26'0 0.0
2014-Nov-20 16:32N 37°54' W 122°26'0 0.0
2014-Nov-20 15:32N 37°54' W 122°26'0 0.0
2014-Nov-20 14:29N 37°54' W 122°26'0 0.1
2014-Nov-20 13:32N 37°54' W 122°26'0 0.0
2014-Nov-20 12:32N 37°54' W 122°26'0 0.0
2014-Nov-20 11:32N 37°54' W 122°26'0 0.0
2014-Nov-20 10:32N 37°54' W 122°26'0 0.0
2014-Nov-20 09:32N 37°54' W 122°26'0 0.0
2014-Nov-20 08:32N 37°54' W 122°26'0 0.1
2014-Nov-20 07:29N 37°54' W 122°26'0 0.1
2014-Nov-20 06:33N 37°54' W 122°26'4 4.0
2014-Nov-20 05:33N 37°50' W 122°24'6 5.8
2014-Nov-20 04:33N 37°48' W 122°31'8 7.7
2014-Nov-20 03:33N 37°45' W 122°40'6 6.2
2014-Nov-20 02:33N 37°47' W 122°48'7 6.7
2014-Nov-20 01:33N 37°50' W 122°55'7 6.9
2014-Nov-20 00:33N 37°54' W 123°03'7 7.0
2014-Nov-19 23:33N 37°57' W 123°10'7 6.9
2014-Nov-19 22:33N 38°02' W 123°16'7 7.4
2014-Nov-19 21:34N 38°07' W 123°23'7 7.0
2014-Nov-19 20:33N 38°12' W 123°30'7 7.0
2014-Nov-19 19:33N 38°16' W 123°36'6 6.4
2014-Nov-19 18:33N 38°21' W 123°42'6 5.6
2014-Nov-19 17:33N 38°24' W 123°48'5 4.6
2014-Nov-19 16:33N 38°27' W 123°52'4 3.9
2014-Nov-19 15:33N 38°30' W 123°56'  
Track history (hours):
 
Tides and Currents Weather Stations Pressure Air Temp Water Temp Dewpoint Dewpoint Depression Visibility Wind Speed Wind Dir Waves Ship Positions

Salishan

Owner: Sause Bros. Inc., COOS BAY, OR. More information available from US FCC via Universal Licensing System and Coast Guard Vessel Documentation Center.

Last reported at 2014-Nov-27 13:31 UTC. Time now 2014-Nov-27 14:29 UTC.
Position N 49°17' W 123°10'.

MMSI: 367007912.

Date/timePositionNaut miles runAvg speedWind from/ knotsBaromVisibWave heightAir tempDewpointWater temp
2014-Nov-27 13:31N 49°17' W 123°10'0 0.0
2014-Nov-27 12:31N 49°17' W 123°10'0 0.0
2014-Nov-27 11:31N 49°17' W 123°10'0 0.0
2014-Nov-27 10:31N 49°17' W 123°10'0 0.0
2014-Nov-27 09:31N 49°17' W 123°10'0 0.0
2014-Nov-27 08:31N 49°17' W 123°10'0 0.0
2014-Nov-27 07:33N 49°17' W 123°10'2 2.4
2014-Nov-27 06:33N 49°18' W 123°13'6 6.2
2014-Nov-27 05:33N 49°13' W 123°19'9 8.7
2014-Nov-27 04:33N 49°05' W 123°21'8 8.3
2014-Nov-27 03:33N 48°59' W 123°12'9 8.6
2014-Nov-27 02:33N 48°53' W 123°02'7 7.0
2014-Nov-27 01:33N 48°46' W 123°01'9 9.3
2014-Nov-27 00:34N 48°42' W 123°14'8 8.3
2014-Nov-26 23:33N 48°34' W 123°12'8 8.2
2014-Nov-26 22:33N 48°26' W 123°09'8 7.6
2014-Nov-26 21:33N 48°18' W 123°11'7 7.1
2014-Nov-26 20:31N 48°12' W 123°15'2 6.8
2014-Nov-26 20:14N 48°11' W 123°18'5 7.0
2014-Nov-26 19:33N 48°11' W 123°25'7 6.7
2014-Nov-26 18:33N 48°12' W 123°35'6 5.6
2014-Nov-26 17:33N 48°13' W 123°43'6 5.5
2014-Nov-26 16:33N 48°12' W 123°52'5 5.4
2014-Nov-26 15:33N 48°14' W 123°60'7 7.1
2014-Nov-26 14:33N 48°17' W 124°09'8 7.6
2014-Nov-26 13:33N 48°20' W 124°20'8 8.3
2014-Nov-26 12:33N 48°24' W 124°31'9 9.1
2014-Nov-26 11:33N 48°27' W 124°43'9 9.3
2014-Nov-26 10:33N 48°25' W 124°57'10 9.9
2014-Nov-26 09:32N 48°16' W 125°03'10 9.7
2014-Nov-26 08:29N 48°06' W 125°09'60 8.5
2014-Nov-26 01:28N 47°08' W 124°51'8 8.4
2014-Nov-26 00:31N 47°00' W 124°47'8 8.5
2014-Nov-25 23:33N 46°52' W 124°43'8 8.0
2014-Nov-25 22:33N 46°45' W 124°41'8 7.9
2014-Nov-25 21:33N 46°37' W 124°37'8 8.1
2014-Nov-25 20:33N 46°29' W 124°34'8 8.4
2014-Nov-25 19:33N 46°21' W 124°31'9 8.6
2014-Nov-25 18:33N 46°13' W 124°27'9 8.9
2014-Nov-25 17:33N 46°04' W 124°27'9 9.3
2014-Nov-25 16:33N 45°55' W 124°27'9 8.7
2014-Nov-25 15:33N 45°46' W 124°28'9 8.6
2014-Nov-25 14:33N 45°38' W 124°29'9 8.8
2014-Nov-25 13:33N 45°29' W 124°30'9 8.6
2014-Nov-25 12:33N 45°20' W 124°30'  
2014-Nov-23 08:08N 38°37' W 123°55'6 6.2
2014-Nov-23 07:12N 38°33' W 123°50'4 5.9
2014-Nov-23 06:29N 38°30' W 123°46'5 5.8
2014-Nov-23 05:33N 38°27' W 123°41'6 5.6
2014-Nov-23 04:33N 38°23' W 123°36'5 5.3
2014-Nov-23 03:33N 38°19' W 123°31'5 5.0
2014-Nov-23 02:33N 38°15' W 123°27'6 5.8
2014-Nov-23 01:33N 38°11' W 123°22'6 6.0
2014-Nov-23 00:33N 38°07' W 123°17'6 6.3
2014-Nov-22 23:33N 38°02' W 123°12'7 6.6
2014-Nov-22 22:33N 37°57' W 123°05'7 6.9
2014-Nov-22 21:33N 37°54' W 122°58'7 7.2
2014-Nov-22 20:33N 37°50' W 122°50'6 6.2
2014-Nov-22 19:33N 37°47' W 122°43'7 6.8
2014-Nov-22 18:33N 37°47' W 122°34'7 6.7
2014-Nov-22 17:33N 37°50' W 122°27'6 6.0
2014-Nov-22 16:33N 37°56' W 122°27'7 6.8
2014-Nov-22 15:33N 38°02' W 122°22'8 8.3
2014-Nov-22 14:33N 38°03' W 122°12'3 1.0
2014-Nov-22 11:27N 38°02' W 122°08'0 0.0
2014-Nov-22 10:33N 38°02' W 122°08'0 0.0
2014-Nov-22 09:27N 38°02' W 122°08'0 0.0
2014-Nov-22 08:04N 38°02' W 122°08'0 0.0
2014-Nov-22 07:22N 38°02' W 122°08'0 0.0
2014-Nov-22 06:04N 38°02' W 122°08'0 0.0
2014-Nov-22 05:28N 38°02' W 122°08'0 0.0
2014-Nov-22 04:28N 38°02' W 122°08'0 0.0
2014-Nov-22 03:28N 38°02' W 122°08'0 0.0
2014-Nov-22 02:10N 38°02' W 122°08'0 0.0
2014-Nov-22 01:28N 38°02' W 122°08'0 0.0
2014-Nov-22 00:28N 38°02' W 122°08'0 0.0
2014-Nov-21 23:28N 38°02' W 122°08'0 0.0
2014-Nov-21 22:04N 38°02' W 122°08'0 0.0
2014-Nov-21 21:28N 38°02' W 122°08'0 0.0
2014-Nov-21 20:10N 38°02' W 122°08'0 0.0
2014-Nov-21 19:28N 38°02' W 122°08'0 0.0
2014-Nov-21 18:29N 38°02' W 122°08'2 0.7
2014-Nov-21 15:23N 38°03' W 122°11'4 5.0
2014-Nov-21 14:33N 38°04' W 122°16'6 5.6
2014-Nov-21 13:33N 38°02' W 122°23'6 5.6
2014-Nov-21 12:34N 37°57' W 122°27'3 3.2
2014-Nov-21 11:34N 37°54' W 122°26'0 0.2
2014-Nov-21 10:33N 37°54' W 122°26'0 0.0
2014-Nov-21 09:33N 37°54' W 122°26'0 0.0
2014-Nov-21 08:33N 37°54' W 122°26'0 0.0
2014-Nov-21 07:30N 37°54' W 122°26'0 0.0
2014-Nov-21 06:33N 37°54' W 122°26'0 0.0
2014-Nov-21 05:33N 37°54' W 122°26'0 0.0
2014-Nov-21 04:26N 37°54' W 122°26'0 0.0
2014-Nov-21 03:29N 37°54' W 122°26'0 0.0
2014-Nov-21 02:32N 37°54' W 122°26'0 0.1
2014-Nov-21 01:32N 37°54' W 122°26'0 0.0
2014-Nov-21 00:32N 37°54' W 122°26'0 0.0
2014-Nov-20 23:32N 37°54' W 122°26'0 0.0
2014-Nov-20 22:32N 37°54' W 122°26'0 0.0
2014-Nov-20 21:32N 37°54' W 122°26'0 0.1
2014-Nov-20 20:32N 37°54' W 122°26'0 0.0
2014-Nov-20 19:29N 37°54' W 122°26'0 0.0
2014-Nov-20 18:32N 37°54' W 122°26'0 0.0
2014-Nov-20 17:20N 37°54' W 122°26'0 0.0
2014-Nov-20 16:32N 37°54' W 122°26'0 0.0
2014-Nov-20 15:32N 37°54' W 122°26'0 0.0
2014-Nov-20 14:29N 37°54' W 122°26'0 0.1
2014-Nov-20 13:32N 37°54' W 122°26'0 0.0
2014-Nov-20 12:32N 37°54' W 122°26'0 0.0
2014-Nov-20 11:32N 37°54' W 122°26'0 0.0
2014-Nov-20 10:32N 37°54' W 122°26'0 0.0
2014-Nov-20 09:32N 37°54' W 122°26'0 0.0
2014-Nov-20 08:32N 37°54' W 122°26'0 0.1
2014-Nov-20 07:29N 37°54' W 122°26'0 0.1
2014-Nov-20 06:33N 37°54' W 122°26'4 4.0
2014-Nov-20 05:33N 37°50' W 122°24'6 5.8
2014-Nov-20 04:33N 37°48' W 122°31'8 7.7
2014-Nov-20 03:33N 37°45' W 122°40'6 6.2
2014-Nov-20 02:33N 37°47' W 122°48'7 6.7
2014-Nov-20 01:33N 37°50' W 122°55'7 6.9
2014-Nov-20 00:33N 37°54' W 123°03'7 7.0
2014-Nov-19 23:33N 37°57' W 123°10'7 6.9
2014-Nov-19 22:33N 38°02' W 123°16'7 7.4
2014-Nov-19 21:34N 38°07' W 123°23'7 7.0
2014-Nov-19 20:33N 38°12' W 123°30'7 7.0
2014-Nov-19 19:33N 38°16' W 123°36'6 6.4
2014-Nov-19 18:33N 38°21' W 123°42'6 5.6
2014-Nov-19 17:33N 38°24' W 123°48'5 4.6
2014-Nov-19 16:33N 38°27' W 123°52'4 3.9
2014-Nov-19 15:33N 38°30' W 123°56'  

Dump ship's entire track history